Flight Track Log - Related Links

Times and Time Zones

All times are in EDT time to prevent confusion due to time zone crossing. See the SWA1802 flight status page for this flight to view local times or setup timezone preferences in your user account.

Time Position Orientation Groundspeed Altitude Reporting Facility
EDT Latitude Longitude Course Direction KTS MPH feet Rate Location/Type
Mon 06:43:41 PM 41.8000 -87.8167 283° West 193 222 2,700  Level Chicago TRACON
Mon 06:44:11 PM 41.7822 -87.8578 240° Southwest 224 258 3,300 2,348 Climbing Chicago Center
Mon 06:45:13 PM 41.7542 -87.9461 247° West 253 291 6,300 3,194 Climbing Chicago Center
Mon 06:46:15 PM 41.7319 -88.0611 256° West 279 321 9,900 2,736 Climbing Chicago Center
Mon 06:47:18 PM 41.7633 -88.1519 295° West 275 316 12,000 1,536 Climbing Chicago Center
Mon 06:48:20 PM 41.7536 -88.2558 263° West 283 326 13,100 1,210 Climbing Chicago Center
Mon 06:49:00 PM 41.9227 -88.6028 283° West  Level FlightAware Approximate
Mon 06:49:22 PM 41.7450 -88.3814 265° West 332 382 14,500  Level Chicago Center
Mon 06:50:24 PM 41.7319 -88.5456 264° West 370 426 17,700 2,516 Climbing Chicago Center
Mon 06:51:26 PM 41.7236 -88.6814 265° West 372 428 19,700 1,839 Climbing Chicago Center
Mon 06:52:28 PM 41.6939 -88.8225 254° West 393 452 21,500 1,694 Climbing Chicago Center
Mon 06:53:30 PM 41.6644 -88.9686 255° West 407 468 23,200 1,597 Climbing Chicago Center
Mon 06:54:32 PM 41.6353 -89.1181 255° West 417 480 24,800 1,645 Climbing Chicago Center
Mon 06:55:34 PM 41.5989 -89.3011 255° West 426 490 26,600 1,790 Climbing Chicago Center
Mon 06:56:36 PM 41.5689 -89.4536 255° West 428 493 28,500 1,872 Climbing Chicago Center
Mon 06:57:39 PM 41.5414 -89.5883 255° West 417 480 30,500 1,728 Climbing Chicago Center
Mon 06:58:41 PM 41.5075 -89.7572 255° West 398 458 32,100 1,181 Climbing Chicago Center
Mon 06:59:46 PM 41.4778 -89.8981 254° West 397 457 33,000 425 Climbing Chicago Center
Mon 07:00:48 PM 41.4642 -90.0447 263° West 403 464 33,000  Level Chicago Center
Mon 07:01:50 PM 41.4558 -90.1919 266° West 404 465 33,000  Level Chicago Center
Mon 07:02:52 PM 41.4461 -90.3697 266° West 403 464 33,000  Level Chicago Center
Mon 07:03:54 PM 41.4403 -90.5172 267° West 402 463 33,000 435 Level Chicago Center
Mon 07:04:56 PM 41.4322 -90.6717 266° West 420 483 33,900 1,016 Climbing Chicago Center
Mon 07:05:58 PM 41.4106 -90.8175 259° West 405 466 35,100 1,016 Climbing Chicago Center
Mon 07:07:00 PM 41.3914 -90.9603 260° West 396 456 36,000 435 Climbing Chicago Center
Mon 07:08:02 PM 41.3714 -91.1042 260° West 396 456 36,000  Level Chicago Center
Mon 07:09:04 PM 41.3461 -91.2761 259° West 396 456 36,000  Level Chicago Center
Mon 07:10:07 PM 41.3261 -91.4125 259° West 402 463 36,000  Level Chicago Center
Mon 07:11:09 PM 41.3056 -91.5572 259° West 402 463 36,000  Level Chicago Center
Mon 07:12:11 PM 41.2789 -91.7306 258° West 402 463 36,000  Level Chicago Center
Mon 07:13:13 PM 41.2572 -91.8744 259° West 401 461 36,000  Level Chicago Center
Mon 07:14:15 PM 41.2350 -92.0203 259° West 403 464 36,000  Level Chicago Center
Mon 07:15:17 PM 41.2108 -92.1814 259° West 405 466 36,000  Level Chicago Center
Mon 07:16:19 PM 41.1875 -92.3244 258° West 403 464 36,000  Level Chicago Center
Mon 07:17:21 PM 41.1656 -92.4708 259° West 406 467 36,000  Level Chicago Center
Mon 07:18:23 PM 41.1433 -92.6147 258° West 403 464 36,000  Level Chicago Center
Mon 07:19:25 PM 41.1158 -92.7875 258° West 404 465 36,000  Level Chicago Center
Mon 07:20:27 PM 41.0925 -92.9319 258° West 406 467 36,000  Level Chicago Center
Mon 07:21:30 PM 41.0694 -93.0769 258° West 407 468 36,000  Level Chicago Center
Mon 07:22:17 PM 41.0508 -93.1908 258° West 403 464 36,000  Level Minneapolis Center
Mon 07:23:19 PM 41.0278 -93.3347 258° West 403 464 36,000  Level Minneapolis Center
Mon 07:24:34 PM 40.9983 -93.5117 258° West 412 474 36,000  Level Minneapolis Center
Mon 07:25:36 PM 40.9692 -93.6881 258° West 414 476 36,000  Level Minneapolis Center
Mon 07:26:50 PM 40.9444 -93.8364 258° West 416 479 36,000  Level Minneapolis Center
Mon 07:27:52 PM 40.9133 -94.0156 257° West 419 482 36,000  Level Minneapolis Center
Mon 07:28:54 PM 40.8867 -94.1642 257° West 419 482 36,000  Level Minneapolis Center
Mon 07:29:56 PM 40.8603 -94.3150 257° West 422 486 36,000  Level Minneapolis Center
Mon 07:30:59 PM 40.8292 -94.4928 257° West 422 486 36,000  Level Minneapolis Center
Mon 07:32:01 PM 40.8019 -94.6408 256° West 417 480 36,000  Level Minneapolis Center
Mon 07:33:02 PM 40.7808 -94.7597 257° West 416 479 36,000  Level Minneapolis Center
Mon 07:34:05 PM 40.7492 -94.9378 257° West 415 478 36,000  Level Minneapolis Center
Mon 07:35:06 PM 40.7278 -95.0567 257° West 416 479 36,000  Level Minneapolis Center
Mon 07:36:09 PM 40.6897 -95.2619 256° West 413 475 36,000  Level Minneapolis Center
Mon 07:37:11 PM 40.6647 -95.4086 257° West 411 473 36,000  Level Minneapolis Center
Mon 07:38:15 PM 40.6361 -95.5569 256° West 414 476 36,000  Level Minneapolis Center
Mon 07:39:17 PM 40.6094 -95.7019 256° West 409 471 36,000  Level Minneapolis Center
Mon 07:40:19 PM 40.5817 -95.8528 256° West 418 481 36,000  Level Minneapolis Center
Mon 07:41:21 PM 40.5533 -96.0003 256° West 418 481 36,000  Level Minneapolis Center
Mon 07:42:23 PM 40.5194 -96.1786 256° West 417 480 36,000  Level Minneapolis Center
Mon 07:43:25 PM 40.4908 -96.3272 256° West 417 480 36,000  Level Minneapolis Center
Mon 07:44:27 PM 40.4625 -96.4731 256° West 413 475 36,000  Level Minneapolis Center
Mon 07:45:29 PM 40.4339 -96.6208 256° West 415 478 36,000  Level Minneapolis Center
Mon 07:46:31 PM 40.4053 -96.7672 256° West 415 478 36,000  Level Minneapolis Center
Mon 07:47:33 PM 40.3758 -96.9125 255° West 413 475 36,000  Level Minneapolis Center
Mon 07:48:35 PM 40.3417 -97.0886 256° West 414 476 36,000  Level Minneapolis Center
Mon 07:49:37 PM 40.3111 -97.2342 255° West 414 476 36,000  Level Minneapolis Center
Mon 07:50:39 PM 40.2814 -97.3814 255° West 411 473 36,000  Level Minneapolis Center
Mon 07:51:41 PM 40.2386 -97.5214 248° West 418 481 36,000  Level Minneapolis Center
Mon 07:52:43 PM 40.1819 -97.6528 241° Southwest 415 478 36,000  Level Minneapolis Center
Mon 07:53:57 PM 40.1508 -97.7975 254° West 415 478 36,000  Level Minneapolis Center
Mon 07:54:59 PM 40.1208 -97.9442 255° West 416 479 36,000  Level Minneapolis Center
Mon 07:56:02 PM 40.0867 -98.1175 256° West 412 474 36,000  Level Minneapolis Center
Mon 07:57:04 PM 40.0489 -98.2914 254° West 413 475 36,000  Level Minneapolis Center
Mon 07:58:06 PM 40.0192 -98.4344 255° West 409 471 36,000  Level Minneapolis Center
Mon 07:59:07 PM 39.9889 -98.5767 255° West 408 470 36,000  Level Minneapolis Center
Mon 08:00:09 PM 39.9586 -98.7206 255° West 408 470 36,000  Level Minneapolis Center
Mon 08:01:11 PM 39.9286 -98.8633 255° West 408 470 36,000  Level Minneapolis Center
Mon 08:02:02 PM 39.9094 -98.9486 254° West 408 470 36,000  Level Denver Center
Mon 08:03:04 PM 39.8728 -99.1175 254° West 405 466 36,000  Level Denver Center
Mon 08:04:07 PM 39.8364 -99.2858 254° West 402 463 36,000  Level Denver Center
Mon 08:05:33 PM 39.7986 -99.4539 254° West 403 464 36,000  Level Denver Center
Mon 08:06:36 PM 39.7619 -99.6225 254° West 404 465 36,000  Level Denver Center
Mon 08:07:38 PM 39.7292 -99.7636 253° West 405 466 36,000  Level Denver Center
Mon 08:08:40 PM 39.6972 -99.9036 254° West 404 465 36,000  Level Denver Center
Mon 08:09:42 PM 39.6847 -100.0775 265° West 407 468 36,000  Level Denver Center
Mon 08:10:44 PM 39.6925 -100.2142 274° West 403 464 36,000  Level Denver Center
Mon 08:11:57 PM 39.7153 -100.3450 283° West 391 450 36,000  Level Denver Center
Mon 08:13:00 PM 39.7464 -100.5203 283° West 389 448 36,000  Level Denver Center
Mon 08:14:02 PM 39.7747 -100.6733 284° West 390 449 36,000  Level Denver Center
Mon 08:15:04 PM 39.7997 -100.8033 284° West 388 447 36,000  Level Denver Center
Mon 08:16:06 PM 39.8289 -100.9578 284° West 393 452 36,000  Level Denver Center
Mon 08:17:08 PM 39.8558 -101.0897 285° West 394 453 36,000  Level Denver Center
Mon 08:18:10 PM 39.8828 -101.2225 285° West 395 455 36,000  Level Denver Center
Mon 08:19:24 PM 39.9161 -101.3781 286° West 398 458 36,000  Level Denver Center
Mon 08:20:26 PM 39.9133 -101.5633 269° West 405 466 36,000  Level Denver Center
Mon 08:21:28 PM 39.9047 -101.7050 266° West 410 472 36,000  Level Denver Center
Mon 08:22:30 PM 39.8708 -101.8642 255° West 417 480 36,000  Level Denver Center
Mon 08:23:32 PM 39.8331 -101.9953 249° West 406 467 36,000  Level Denver Center
Mon 08:24:34 PM 39.7997 -102.1067 249° West 412 474 36,000  Level Denver Center
Mon 08:25:36 PM 39.7461 -102.2844 249° West 414 476 36,000  Level Denver Center
Mon 08:26:38 PM 39.7058 -102.4189 249° West 417 480 36,000  Level Denver Center
Mon 08:27:40 PM 39.6589 -102.5758 249° West 419 482 36,000  Level Denver Center
Mon 08:28:42 PM 39.6119 -102.7308 249° West 425 489 36,000  Level Denver Center
Mon 08:29:44 PM 39.5669 -102.8736 248° West 427 491 36,000  Level Denver Center
Mon 08:30:46 PM 39.5383 -103.0206 256° West 423 487 36,000  Level Denver Center
Mon 08:31:48 PM 39.5181 -103.1683 260° West 419 482 36,000  Level Denver Center
Mon 08:32:50 PM 39.5169 -103.3206 270° West 422 486 36,000  Level Denver Center
Mon 08:33:52 PM 39.5128 -103.4403 267° West 419 482 36,000 97 Level Denver Center
Mon 08:34:54 PM 39.5103 -103.6225 269° West 421 484 36,200 629 Climbing Denver Center
Mon 08:35:56 PM 39.5069 -103.8036 269° West 423 487 37,300 864 Climbing Denver Center
Mon 08:36:59 PM 39.5058 -103.9522 269° West 412 474 38,000 339 Climbing Denver Center
Mon 08:38:00 PM 39.5081 -104.1033 271° West 422 486 38,000  Level Denver Center
Mon 08:39:02 PM 39.5072 -104.2525 270° West 416 479 38,000  Level Denver Center
Mon 08:40:04 PM 39.5075 -104.4058 270° West 423 487 38,000  Level Denver Center
Mon 08:41:06 PM 39.5075 -104.5564 270° West 405 466 38,000  Level Denver Center
Mon 08:42:08 PM 39.5075 -104.7147 270° West 428 493 38,000  Level Denver Center
Mon 08:43:10 PM 39.5081 -104.8747 270° West 431 496 38,000  Level Denver Center
Mon 08:44:12 PM 39.5083 -105.0575 270° West 422 486 38,000  Level Denver Center
Mon 08:45:14 PM 39.4900 -105.2031 261° West 409 471 38,000  Level Denver Center
Mon 08:46:16 PM 39.4350 -105.3378 242° Southwest 422 486 38,000  Level Denver Center
Mon 08:47:18 PM 39.3806 -105.4714 242° Southwest 416 479 38,000  Level Denver Center
Mon 08:48:20 PM 39.3286 -105.5992 242° Southwest 404 465 38,000  Level Denver Center
Mon 08:49:22 PM 39.2753 -105.7303 242° Southwest 411 473 38,000 -484 Level Denver Center
Mon 08:50:24 PM 39.2111 -105.8872 242° Southwest 413 475 37,000 -484 Descending Denver Center
Mon 08:51:26 PM 39.1550 -106.0178 241° Southwest 416 479 37,000  Level Denver Center
Mon 08:52:28 PM 39.1008 -106.1494 242° Southwest 416 479 37,000  Level Denver Center
Mon 08:53:29 PM 39.0478 -106.2767 242° Southwest 420 483 37,000  Level Denver Center
Mon 08:54:31 PM 38.9942 -106.4039 242° Southwest 420 483 37,000 339 Level Denver Center
Mon 08:55:33 PM 38.9322 -106.5483 241° Southwest 415 478 37,700 441 Climbing Denver Center
Mon 08:56:47 PM 38.8775 -106.6789 242° Southwest 410 472 38,000 122 Climbing Denver Center
Mon 08:58:01 PM 38.8111 -106.8325 241° Southwest 407 468 38,000  Level Denver Center
Mon 08:59:04 PM 38.7442 -106.9889 241° Southwest 414 476 38,000  Level Denver Center
Mon 09:00:06 PM 38.6772 -107.1444 241° Southwest 415 478 38,000  Level Denver Center
Mon 09:01:08 PM 38.6244 -107.2686 241° Southwest 415 478 38,000  Level Denver Center
Mon 09:02:10 PM 38.5611 -107.4136 241° Southwest 417 480 38,000  Level Denver Center
Mon 09:03:11 PM 38.5072 -107.5375 241° Southwest 415 478 38,000  Level Denver Center
Mon 09:04:13 PM 38.4533 -107.6606 241° Southwest 412 474 38,000  Level Denver Center
Mon 09:05:15 PM 38.3906 -107.8039 241° Southwest 412 474 38,000  Level Denver Center
Mon 09:06:17 PM 38.3361 -107.9283 241° Southwest 419 482 38,000  Level Denver Center
Mon 09:07:19 PM 38.2731 -108.0703 241° Southwest 415 478 38,000  Level Denver Center
Mon 09:08:21 PM 38.2181 -108.1917 240° Southwest 412 474 38,000  Level Denver Center
Mon 09:09:23 PM 38.1547 -108.3344 241° Southwest 414 476 38,000  Level Denver Center
Mon 09:10:25 PM 38.1008 -108.4550 240° Southwest 413 475 38,000  Level Denver Center
Mon 09:11:26 PM 38.0419 -108.5858 240° Southwest 409 471 38,000  Level Denver Center
Mon 09:12:28 PM 37.9883 -108.7022 240° Southwest 403 464 38,000  Level Denver Center
Mon 09:13:30 PM 37.9247 -108.8450 241° Southwest 413 475 38,000  Level Denver Center
Mon 09:14:32 PM 37.8692 -108.9631 239° Southwest 411 473 38,000  Level Denver Center
Mon 09:15:34 PM 37.8061 -109.1022 240° Southwest 410 472 38,000  Level Denver Center
Mon 09:16:36 PM 37.7522 -109.2211 240° Southwest 409 471 38,000  Level Denver Center
Mon 09:17:38 PM 37.6881 -109.3578 239° Southwest 407 468 38,000  Level Denver Center
Mon 09:18:40 PM 37.6339 -109.4761 240° Southwest 408 470 38,000  Level Denver Center
Mon 09:19:42 PM 37.5703 -109.6122 240° Southwest 405 466 38,000  Level Denver Center
Mon 09:20:44 PM 37.5011 -109.7147 230° Southwest 414 476 38,000  Level Denver Center
Mon 09:21:45 PM 37.3742 -109.7658 198° South 432 497 38,000  Level Denver Center
Mon 09:22:47 PM 37.2639 -109.8050 196° South 431 496 38,000  Level Denver Center
Mon 09:23:49 PM 37.1358 -109.8478 195° South 428 493 38,000  Level Denver Center
Mon 09:24:51 PM 37.0272 -109.8883 197° South 427 491 38,000  Level Denver Center
Mon 09:25:53 PM 36.9508 -110.0106 232° Southwest 404 465 38,000  Level Denver Center
Mon 09:26:55 PM 36.8983 -110.1261 240° Southwest 402 463 38,000  Level Denver Center
Mon 09:27:57 PM 36.8489 -110.2647 246° West 400 460 38,000  Level Denver Center
Mon 09:28:59 PM 36.8044 -110.3922 247° West 400 460 38,000  Level Denver Center
Mon 09:30:12 PM 36.7589 -110.5200 246° West 404 465 38,000  Level Denver Center
Mon 09:31:50 PM 36.6750 -110.7511 246° West 404 465 38,000  Level Los Angeles Center
Mon 09:32:17 PM 36.6583 -110.8003 247° West 404 465 38,000  Level Denver Center
Mon 09:33:19 PM 36.6133 -110.9278 246° West 403 464 38,000  Level Denver Center
Mon 09:34:20 PM 36.5675 -111.0547 246° West 402 463 38,000  Level Denver Center
Mon 09:35:22 PM 36.5194 -111.1828 245° Southwest 404 465 38,000  Level Denver Center
Mon 09:36:24 PM 36.4636 -111.3339 245° Southwest 403 464 38,000  Level Denver Center
Mon 09:37:26 PM 36.4158 -111.4589 245° Southwest 401 461 38,000  Level Denver Center
Mon 09:38:28 PM 36.3706 -111.5836 246° West 399 459 38,000  Level Denver Center
Mon 09:39:01 PM 36.3497 -111.6347 243° Southwest 398 458 38,000  Level Los Angeles Center
Mon 09:40:03 PM 36.2931 -111.7842 245° Southwest 397 457 38,000  Level Los Angeles Center
Mon 09:41:05 PM 36.2475 -111.9078 245° Southwest 395 455 38,000  Level Los Angeles Center
Mon 09:42:07 PM 36.2008 -112.0308 245° Southwest 395 455 38,000  Level Los Angeles Center
Mon 09:43:08 PM 36.1508 -112.1583 244° Southwest 397 457 38,000  Level Los Angeles Center
Mon 09:44:10 PM 36.1058 -112.2783 245° Southwest 397 457 38,000  Level Los Angeles Center
Mon 09:45:11 PM 36.0486 -112.4253 244° Southwest 396 456 38,000  Level Los Angeles Center
Mon 09:46:13 PM 36.0017 -112.5500 245° Southwest 399 459 38,000  Level Los Angeles Center
Mon 09:47:16 PM 35.9533 -112.6714 244° Southwest 397 457 38,000  Level Los Angeles Center
Mon 09:48:16 PM 35.9067 -112.7919 244° Southwest 397 457 38,000  Level Los Angeles Center
Mon 09:49:18 PM 35.8611 -112.9108 245° Southwest 392 451 38,000  Level Los Angeles Center
Mon 09:50:19 PM 35.8144 -113.0297 244° Southwest 392 451 38,000  Level Los Angeles Center
Mon 09:51:21 PM 35.7681 -113.1472 244° Southwest 388 447 38,000  Level Los Angeles Center
Mon 09:52:22 PM 35.7131 -113.2872 244° Southwest 385 443 38,000  Level Los Angeles Center
Mon 09:53:23 PM 35.6667 -113.4033 244° Southwest 384 442 38,000  Level Los Angeles Center
Mon 09:54:25 PM 35.6203 -113.5192 244° Southwest 383 441 38,000  Level Los Angeles Center
Mon 09:55:26 PM 35.5747 -113.6356 244° Southwest 381 438 38,000  Level Los Angeles Center
Mon 09:56:28 PM 35.5272 -113.7525 244° Southwest 385 443 38,000  Level Los Angeles Center
Mon 09:57:41 PM 35.4800 -113.8692 244° Southwest 385 443 38,000  Level Los Angeles Center
Mon 09:58:43 PM 35.4147 -114.0303 244° Southwest 386 444 38,000  Level Los Angeles Center
Mon 09:59:44 PM 35.3658 -114.1492 243° Southwest 388 447 38,000  Level Los Angeles Center
Mon 10:00:46 PM 35.3178 -114.2658 243° Southwest 384 442 38,000  Level Los Angeles Center
Mon 10:01:47 PM 35.2708 -114.3850 244° Southwest 386 444 38,000  Level Los Angeles Center
Mon 10:02:49 PM 35.2219 -114.5025 243° Southwest 387 445 38,000  Level Los Angeles Center
Mon 10:03:50 PM 35.1717 -114.6217 243° Southwest 391 450 38,000  Level Los Angeles Center
Mon 10:05:04 PM 35.1139 -114.7625 243° Southwest 387 445 38,000  Level Los Angeles Center
Mon 10:06:05 PM 35.0558 -114.9028 243° Southwest 384 442 38,000  Level Los Angeles Center
Mon 10:07:07 PM 35.0083 -115.0175 243° Southwest 382 440 38,000  Level Los Angeles Center
Mon 10:08:09 PM 34.9611 -115.1333 244° Southwest 381 438 38,000  Level Los Angeles Center
Mon 10:09:10 PM 34.9125 -115.2486 243° Southwest 381 438 38,000  Level Los Angeles Center
Mon 10:10:12 PM 34.8644 -115.3611 243° Southwest 376 433 38,000  Level Los Angeles Center
Mon 10:11:13 PM 34.8161 -115.4747 243° Southwest 377 434 38,000  Level Los Angeles Center
Mon 10:12:15 PM 34.7678 -115.5889 243° Southwest 380 437 38,000  Level Los Angeles Center
Mon 10:13:16 PM 34.7192 -115.7044 243° Southwest 384 442 38,000  Level Los Angeles Center
Mon 10:14:18 PM 34.6700 -115.8192 243° Southwest 384 442 38,000  Level Los Angeles Center
Mon 10:15:19 PM 34.6125 -115.9558 243° Southwest 381 438 38,000  Level Los Angeles Center
Mon 10:16:21 PM 34.5631 -116.0692 242° Southwest 381 438 38,000  Level Los Angeles Center
Mon 10:17:22 PM 34.5131 -116.1833 242° Southwest 382 440 38,000 -927 Level Los Angeles Center
Mon 10:18:24 PM 34.4647 -116.2950 242° Southwest 376 433 36,100 -2,419 Descending Los Angeles Center
Mon 10:19:26 PM 34.4153 -116.4092 242° Southwest 381 438 33,000 -2,683 Descending Los Angeles Center
Mon 10:20:27 PM 34.3642 -116.5261 242° Southwest 391 450 30,600 -2,293 Descending Los Angeles Center
Mon 10:21:29 PM 34.3150 -116.6372 242° Southwest 380 437 28,300 -2,195 Descending Los Angeles Center
Mon 10:22:30 PM 34.2664 -116.7489 242° Southwest 375 432 26,100 -2,390 Descending Los Angeles Center
Mon 10:23:32 PM 34.2089 -116.8786 242° Southwest 367 422 23,400 -2,390 Descending Los Angeles Center
Mon 10:24:33 PM 34.1603 -116.9864 241° Southwest 365 420 21,200 -2,146 Descending Los Angeles Center
Mon 10:25:35 PM 34.1125 -117.0978 243° Southwest 363 418 19,000 -2,045 Descending Los Angeles Center
Mon 10:26:01 PM 34.1000 -117.1500 254° West 364 419 18,200 -2,250 Descending Southern California TRACON
Mon 10:26:55 PM 34.0500 -117.2500 239° Southwest 367 422 16,000 -2,350 Descending Southern California TRACON
Mon 10:28:01 PM 34.0333 -117.3667 260° West 353 406 13,500 -2,190 Descending Southern California TRACON
Mon 10:29:01 PM 34.0167 -117.4833 260° West 347 399 11,400 -1,650 Descending Southern California TRACON
Mon 10:30:01 PM 34.0167 -117.6000 270° West 321 369 10,200 -750 Descending Southern California TRACON
Mon 10:31:01 PM 34.0000 -117.7000 259° West 289 333 9,900 -800 Descending Southern California TRACON
Mon 10:32:01 PM 34.0000 -117.8000 270° West 282 325 8,600 -1,381 Descending Southern California TRACON
Mon 10:33:07 PM 33.9833 -117.9000 259° West 277 319 7,000 -1,200 Descending Southern California TRACON
Mon 10:34:01 PM 33.9833 -117.9667 270° West 268 308 6,200 -895 Descending Southern California TRACON
Mon 10:35:01 PM 33.9667 -118.0667 259° West 247 284 5,300 -1,000 Descending Southern California TRACON
Mon 10:36:01 PM 33.9667 -118.1333 270° West 236 272 4,200 -1,179 Descending Southern California TRACON
Mon 10:36:53 PM 33.9564 -118.2000 259° West 229 264 3,100 -1,115 Descending Los Angeles Center
Mon 10:37:54 PM 33.9511 -118.2617 264° West 204 235 2,100 -927 Descending Los Angeles Center
Mon 10:38:56 PM 33.9450 -118.3156 262° West 182 209 1,200 -774 Descending Los Angeles Center
Mon 10:39:58 PM 33.9400 -118.3644 263° West 163 188 500 -488 Descending Los Angeles Center
Mon 10:40:59 PM 33.9358 -118.4086 264° West 157 181 200 -295 Descending Los Angeles Center
Mon 10:42:00 PM 33.9333 -118.4000 North  Level FlightAware Approximate
Mon 10:49:00 PM 33.9425 -118.4081 North  Level Estimated

Login

Don't have an account? Register now (free) for customized features, flight alerts, and more!